createdAt,value
2023-12-05T00:00:01.422Z,61.11
2023-12-05T00:02:28.949Z,61.17
2023-12-05T00:04:57.368Z,61.65
2023-12-05T00:07:26.565Z,61.70
2023-12-05T00:09:54.318Z,61.77
2023-12-05T00:12:22.550Z,61.08
2023-12-05T00:14:50.125Z,61.13
2023-12-05T00:17:17.725Z,61.58
2023-12-05T00:19:45.307Z,61.56
2023-12-05T00:22:12.920Z,61.57
2023-12-05T00:24:40.498Z,61.56
2023-12-05T00:27:09.960Z,61.45
2023-12-05T00:29:39.180Z,62.17
2023-12-05T00:32:07.080Z,61.73
2023-12-05T00:34:35.005Z,62.35
2023-12-05T00:37:02.583Z,62.21
2023-12-05T00:39:30.367Z,62.29
2023-12-05T00:41:58.002Z,62.01
2023-12-05T00:44:25.634Z,62.04
2023-12-05T00:46:53.256Z,62.47
2023-12-05T00:49:20.920Z,62.40
2023-12-05T00:51:48.602Z,62.83
2023-12-05T00:54:16.305Z,62.54
2023-12-05T00:56:43.891Z,62.38
2023-12-05T00:59:11.526Z,62.53
2023-12-05T01:01:39.092Z,62.53
2023-12-05T01:04:06.836Z,62.58
2023-12-05T01:06:34.493Z,62.83
2023-12-05T01:09:02.089Z,62.96
2023-12-05T01:11:29.893Z,62.84
2023-12-05T01:13:57.535Z,62.77
2023-12-05T01:16:25.146Z,61.99
2023-12-05T01:18:52.793Z,62.80
2023-12-05T01:21:20.486Z,62.61
2023-12-05T01:23:48.069Z,62.94
2023-12-05T01:26:15.628Z,63.04
2023-12-05T01:28:43.244Z,63.22
2023-12-05T01:31:10.780Z,62.87
2023-12-05T01:33:38.444Z,63.27
2023-12-05T01:36:11.529Z,63.00
2023-12-05T01:38:40.349Z,63.42
2023-12-05T01:41:08.587Z,63.45
2023-12-05T01:43:36.237Z,63.08
2023-12-05T01:46:05.539Z,62.94
2023-12-05T01:48:35.117Z,63.17
2023-12-05T01:51:05.878Z,63.03
2023-12-05T01:53:35.083Z,63.60
2023-12-05T01:56:04.942Z,62.69
2023-12-05T01:58:35.117Z,62.83
2023-12-05T02:01:04.774Z,63.00
2023-12-05T02:03:33.100Z,63.30
2023-12-05T02:06:01.382Z,62.88
2023-12-05T02:08:30.166Z,63.12
2023-12-05T02:10:57.832Z,63.39
2023-12-05T02:13:25.400Z,62.73
2023-12-05T02:16:16.164Z,63.31
2023-12-05T02:18:57.413Z,63.48
2023-12-05T02:21:32.438Z,63.04
2023-12-05T02:24:26.856Z,62.96
2023-12-05T02:27:03.248Z,63.20
2023-12-05T02:29:30.799Z,63.75
2023-12-05T02:31:58.594Z,63.02
2023-12-05T02:34:26.318Z,63.77
2023-12-05T02:37:15.379Z,63.77
2023-12-05T02:39:58.253Z,64.01
2023-12-05T02:42:28.415Z,64.28
2023-12-05T02:44:57.848Z,64.70
2023-12-05T02:47:28.030Z,64.16
2023-12-05T02:49:55.596Z,64.56
2023-12-05T02:52:23.633Z,64.24
2023-12-05T02:54:51.277Z,64.22
2023-12-05T02:57:18.937Z,63.86
2023-12-05T02:59:46.531Z,64.99
2023-12-05T03:02:14.148Z,64.21
2023-12-05T03:04:43.687Z,64.82
2023-12-05T03:07:11.432Z,64.77
2023-12-05T03:09:39.094Z,65.19
2023-12-05T03:12:07.106Z,65.21
2023-12-05T03:14:34.837Z,65.30
2023-12-05T03:17:02.416Z,65.30
2023-12-05T03:19:31.129Z,64.51
2023-12-05T03:21:58.996Z,64.82
2023-12-05T03:24:26.811Z,64.70
2023-12-05T03:26:55.771Z,64.52
2023-12-05T03:29:23.354Z,64.88
2023-12-05T03:31:50.916Z,64.73
2023-12-05T03:34:18.532Z,64.20
2023-12-05T03:36:46.343Z,64.40
2023-12-05T03:39:14.047Z,64.28
2023-12-05T03:41:44.289Z,65.04
2023-12-05T03:44:11.908Z,64.11
2023-12-05T03:46:39.511Z,64.12
2023-12-05T03:49:07.235Z,64.74
2023-12-05T03:51:35.010Z,64.23
2023-12-05T03:54:03.908Z,64.82
2023-12-05T03:56:31.535Z,64.76
2023-12-05T03:58:59.108Z,64.35
2023-12-05T04:01:27.498Z,64.75
2023-12-05T04:03:55.210Z,64.89
2023-12-05T04:06:24.501Z,64.36
2023-12-05T04:08:52.926Z,64.85
2023-12-05T04:11:33.797Z,65.21
2023-12-05T04:14:02.163Z,65.49
2023-12-05T04:16:29.841Z,65.28
2023-12-05T04:18:57.501Z,65.11
2023-12-05T04:21:27.423Z,65.47
2023-12-05T04:23:55.208Z,65.19
2023-12-05T04:26:23.023Z,64.91
2023-12-05T04:28:50.794Z,65.13
2023-12-05T04:31:18.358Z,65.53
2023-12-05T04:33:46.061Z,65.40
2023-12-05T04:36:13.761Z,64.78
2023-12-05T04:38:41.330Z,64.95
2023-12-05T04:41:08.934Z,64.60
2023-12-05T04:43:37.381Z,64.89
2023-12-05T04:46:05.279Z,64.79
2023-12-05T04:48:32.968Z,65.28
2023-12-05T04:51:00.575Z,64.76
2023-12-05T04:53:28.145Z,65.29
2023-12-05T04:55:55.841Z,65.52
2023-12-05T04:58:23.411Z,64.80
2023-12-05T05:00:52.027Z,64.55
2023-12-05T05:03:20.701Z,64.44
2023-12-05T05:05:48.351Z,64.87
2023-12-05T05:08:15.972Z,64.71
2023-12-05T05:10:43.547Z,64.39
2023-12-05T05:13:11.194Z,64.70
2023-12-05T05:15:38.891Z,64.62
2023-12-05T05:18:06.637Z,63.92
2023-12-05T05:20:34.287Z,64.10
2023-12-05T05:23:01.912Z,64.45
2023-12-05T05:25:29.709Z,63.98
2023-12-05T05:27:57.730Z,64.61
2023-12-05T05:30:25.356Z,64.74
2023-12-05T05:32:52.955Z,64.55
2023-12-05T05:35:23.143Z,64.51
2023-12-05T05:37:52.174Z,65.14
2023-12-05T05:40:19.914Z,65.36
2023-12-05T05:42:47.705Z,64.89
2023-12-05T05:45:15.443Z,65.68
2023-12-05T05:47:43.059Z,65.11
2023-12-05T05:50:12.941Z,65.16
2023-12-05T05:52:42.530Z,65.37
2023-12-05T05:55:10.225Z,65.22
2023-12-05T05:57:37.847Z,64.91
2023-12-05T06:00:07.134Z,65.26
2023-12-05T06:02:34.887Z,65.35
2023-12-05T06:05:03.277Z,64.81
2023-12-05T06:07:32.453Z,65.89
2023-12-05T06:10:00.341Z,65.02
2023-12-05T06:12:27.936Z,65.25
2023-12-05T06:14:55.670Z,64.98
2023-12-05T06:17:23.240Z,65.04
2023-12-05T06:19:51.244Z,65.55
2023-12-05T06:22:18.825Z,65.54
2023-12-05T06:24:47.012Z,65.00
2023-12-05T06:27:14.639Z,65.54
2023-12-05T06:29:42.317Z,65.14
2023-12-05T06:32:09.960Z,65.45
2023-12-05T06:34:37.594Z,65.08
2023-12-05T06:37:05.386Z,65.06
2023-12-05T06:39:33.088Z,65.70
2023-12-05T06:42:00.814Z,65.16
2023-12-05T06:44:28.377Z,64.89
2023-12-05T06:46:55.956Z,65.41
2023-12-05T06:49:24.264Z,65.00
2023-12-05T06:51:58.403Z,65.13
2023-12-05T06:54:26.712Z,65.42
2023-12-05T06:56:54.299Z,65.55
2023-12-05T06:59:21.927Z,65.62
2023-12-05T07:01:49.532Z,65.48
2023-12-05T07:04:17.255Z,65.24
2023-12-05T07:06:45.319Z,64.76
2023-12-05T07:09:13.009Z,65.16
2023-12-05T07:11:40.722Z,65.35
2023-12-05T07:14:09.290Z,65.20
2023-12-05T07:16:37.818Z,65.03
2023-12-05T07:19:05.537Z,65.08
2023-12-05T07:21:33.180Z,65.34
2023-12-05T07:24:01.505Z,65.12
2023-12-05T07:26:29.350Z,65.88
2023-12-05T07:28:57.032Z,65.27
2023-12-05T07:31:25.305Z,64.68
2023-12-05T07:33:53.071Z,65.11
2023-12-05T07:36:20.987Z,65.12
2023-12-05T07:38:48.565Z,65.00
2023-12-05T07:41:25.918Z,65.47
2023-12-05T07:43:53.513Z,64.45
2023-12-05T07:46:22.234Z,65.22
2023-12-05T07:48:49.914Z,64.46
2023-12-05T07:51:19.499Z,64.43
2023-12-05T07:53:51.348Z,64.76
2023-12-05T07:56:19.241Z,64.54
2023-12-05T07:58:46.926Z,64.23
2023-12-05T08:01:14.566Z,64.77
2023-12-05T08:03:42.352Z,63.98
2023-12-05T08:06:10.452Z,64.25
2023-12-05T08:08:38.113Z,63.53
2023-12-05T08:11:07.327Z,63.89
2023-12-05T08:13:34.910Z,64.36
2023-12-05T08:16:02.472Z,63.77
2023-12-05T08:18:30.093Z,63.53
2023-12-05T08:20:57.749Z,63.70
2023-12-05T08:23:25.392Z,63.65
2023-12-05T08:25:52.966Z,63.37
2023-12-05T08:28:20.593Z,63.54
2023-12-05T08:30:48.224Z,63.37
2023-12-05T08:33:16.397Z,63.04
2023-12-05T08:35:43.948Z,63.29
2023-12-05T08:38:11.531Z,63.39
2023-12-05T08:40:39.670Z,63.19
2023-12-05T08:43:07.426Z,63.18
2023-12-05T08:45:35.027Z,63.03
2023-12-05T08:48:02.762Z,62.88
2023-12-05T08:50:30.413Z,62.59
2023-12-05T08:52:57.982Z,62.34
2023-12-05T08:55:25.890Z,62.82
2023-12-05T08:57:53.522Z,62.79
2023-12-05T09:00:21.252Z,62.63
2023-12-05T09:02:48.877Z,62.74
2023-12-05T09:05:16.613Z,62.20
2023-12-05T09:07:44.979Z,62.20
2023-12-05T09:10:13.635Z,62.39
2023-12-05T09:12:41.203Z,62.61
2023-12-05T09:15:09.286Z,62.29
2023-12-05T09:17:36.971Z,62.24
2023-12-05T09:20:05.296Z,62.04
2023-12-05T09:22:32.948Z,62.64
2023-12-05T09:25:00.637Z,62.45
2023-12-05T09:27:28.276Z,62.34
2023-12-05T09:29:55.857Z,62.43
2023-12-05T09:32:23.599Z,62.30
2023-12-05T09:34:51.262Z,62.43
2023-12-05T09:37:18.870Z,62.49
2023-12-05T09:39:46.476Z,62.12
2023-12-05T09:42:15.207Z,62.15
2023-12-05T09:44:48.512Z,62.17
2023-12-05T09:47:21.582Z,62.46
2023-12-05T09:49:50.561Z,62.38
2023-12-05T09:52:19.165Z,61.75
2023-12-05T09:54:48.654Z,62.47
2023-12-05T09:57:16.725Z,62.35
2023-12-05T09:59:44.290Z,61.71
2023-12-05T10:02:14.369Z,62.17
2023-12-05T10:04:46.776Z,62.09
2023-12-05T10:07:14.945Z,61.78
2023-12-05T10:09:44.538Z,61.94
2023-12-05T10:12:13.037Z,61.62
2023-12-05T10:14:41.594Z,61.86
2023-12-05T10:17:09.375Z,61.34
2023-12-05T10:19:37.475Z,61.84
2023-12-05T10:22:05.783Z,61.59
2023-12-05T10:24:44.724Z,61.78
2023-12-05T10:27:12.871Z,61.92
2023-12-05T10:29:42.583Z,61.71
2023-12-05T10:32:13.272Z,61.66
2023-12-05T10:34:54.025Z,61.53
2023-12-05T10:37:26.489Z,61.62
2023-12-05T10:39:56.311Z,61.66
2023-12-05T10:42:30.840Z,61.27
2023-12-05T10:44:58.770Z,61.16
2023-12-05T10:47:28.134Z,61.35
2023-12-05T10:49:56.242Z,61.67
2023-12-05T10:52:24.118Z,61.42
2023-12-05T10:54:57.515Z,60.94
2023-12-05T10:57:31.884Z,61.20
2023-12-05T11:00:00.235Z,61.31
2023-12-05T11:02:29.045Z,61.64
2023-12-05T11:04:57.497Z,61.24
2023-12-05T11:07:25.094Z,61.20
2023-12-05T11:09:52.716Z,61.26
2023-12-05T11:12:21.288Z,61.49
2023-12-05T11:14:53.494Z,61.52
2023-12-05T11:17:29.900Z,60.92
2023-12-05T11:20:15.433Z,60.99
2023-12-05T11:23:20.603Z,61.10
2023-12-05T11:26:19.938Z,60.91
2023-12-05T11:29:29.987Z,60.96
2023-12-05T11:32:05.202Z,60.76
2023-12-05T11:35:08.211Z,60.49
2023-12-05T11:38:03.526Z,60.80
2023-12-05T11:40:31.232Z,60.81
2023-12-05T11:43:10.501Z,60.68
2023-12-05T11:45:43.208Z,60.57
2023-12-05T11:48:12.885Z,60.74
2023-12-05T11:50:45.555Z,60.37
2023-12-05T11:53:19.349Z,60.19
2023-12-05T11:55:50.603Z,59.83
2023-12-05T11:58:36.110Z,59.71
2023-12-05T12:01:10.617Z,59.73
2023-12-05T12:03:55.364Z,59.58
2023-12-05T12:06:25.888Z,59.43
2023-12-05T12:08:59.505Z,58.88
2023-12-05T12:11:27.561Z,59.32
2023-12-05T12:13:55.130Z,59.49
2023-12-05T12:16:22.768Z,59.12
2023-12-05T12:18:54.373Z,59.08
2023-12-05T12:21:32.710Z,58.65
2023-12-05T12:24:00.541Z,58.62
2023-12-05T12:26:32.979Z,58.48
2023-12-05T12:29:10.841Z,58.02
2023-12-05T12:31:38.987Z,58.14
2023-12-05T12:34:09.129Z,58.44
2023-12-05T12:36:38.653Z,57.79
2023-12-05T12:39:06.506Z,57.92
2023-12-05T12:41:34.112Z,57.71
2023-12-05T12:44:04.257Z,58.06
2023-12-05T12:46:31.907Z,57.85
2023-12-05T12:49:00.072Z,57.86
2023-12-05T12:51:27.781Z,57.22
2023-12-05T12:53:56.357Z,57.56
2023-12-05T12:56:24.978Z,57.47
2023-12-05T12:58:52.536Z,57.40
2023-12-05T13:01:21.376Z,57.15
2023-12-05T13:03:49.121Z,56.54
2023-12-05T13:06:17.277Z,56.39
2023-12-05T13:08:44.918Z,56.51
2023-12-05T13:11:12.745Z,55.78
2023-12-05T13:13:40.652Z,55.85
2023-12-05T13:16:09.907Z,55.70
2023-12-05T13:18:44.269Z,55.73
2023-12-05T13:21:13.544Z,56.14
2023-12-05T13:23:44.732Z,55.93
2023-12-05T13:26:12.494Z,56.57
2023-12-05T13:28:40.203Z,56.09
2023-12-05T13:31:07.869Z,55.89
2023-12-05T13:33:35.574Z,55.89
2023-12-05T13:36:04.156Z,55.98
2023-12-05T13:38:31.873Z,55.73
2023-12-05T13:40:59.429Z,55.96
2023-12-05T13:43:27.002Z,56.08
2023-12-05T13:45:54.684Z,55.95
2023-12-05T13:48:22.459Z,55.95
2023-12-05T13:50:50.093Z,56.12
2023-12-05T13:53:17.742Z,55.93
2023-12-05T13:55:45.326Z,55.79
2023-12-05T13:58:13.096Z,55.43
2023-12-05T14:00:40.866Z,55.77
2023-12-05T14:03:08.585Z,54.76
2023-12-05T14:05:36.553Z,55.23
2023-12-05T14:08:04.365Z,55.52
2023-12-05T14:10:31.960Z,55.18
2023-12-05T14:12:59.553Z,55.32
2023-12-05T14:15:28.009Z,55.10
2023-12-05T14:17:57.200Z,55.19
2023-12-05T14:20:25.053Z,55.08
2023-12-05T14:22:52.593Z,54.94
2023-12-05T14:25:20.370Z,55.12
2023-12-05T14:27:48.168Z,55.07
2023-12-05T14:30:15.916Z,55.05
2023-12-05T14:32:43.720Z,55.00
2023-12-05T14:35:11.456Z,54.86
2023-12-05T14:37:39.271Z,54.63
2023-12-05T14:40:08.050Z,55.07
2023-12-05T14:42:37.985Z,55.24
2023-12-05T14:45:07.307Z,55.11
2023-12-05T14:47:35.168Z,55.13
2023-12-05T14:50:02.969Z,55.52
2023-12-05T14:52:30.627Z,55.15
2023-12-05T14:54:58.223Z,55.25
2023-12-05T14:57:26.804Z,55.24
2023-12-05T14:59:56.373Z,55.23
2023-12-05T15:02:24.028Z,55.33
2023-12-05T15:04:51.748Z,55.30
2023-12-05T15:07:19.789Z,55.35
2023-12-05T15:09:47.582Z,55.55
2023-12-05T15:12:15.151Z,55.46
2023-12-05T15:14:43.172Z,55.46
2023-12-05T15:17:11.078Z,55.41
2023-12-05T15:19:38.852Z,55.29
2023-12-05T15:22:26.312Z,55.28
2023-12-05T15:24:54.043Z,55.24
2023-12-05T15:27:21.851Z,55.42
2023-12-05T15:29:49.435Z,55.47
2023-12-05T15:32:17.010Z,55.42
2023-12-05T15:34:44.791Z,55.59
2023-12-05T15:37:12.480Z,55.30
2023-12-05T15:39:43.606Z,55.38
2023-12-05T15:42:11.219Z,55.45
2023-12-05T15:44:38.889Z,55.21
2023-12-05T15:47:07.527Z,55.36
2023-12-05T15:49:35.184Z,55.54
2023-12-05T15:52:02.855Z,55.60
2023-12-05T15:54:33.976Z,55.70
2023-12-05T15:57:01.616Z,55.63
2023-12-05T15:59:29.156Z,55.60
2023-12-05T16:01:56.783Z,55.67
2023-12-05T16:04:24.449Z,55.79
2023-12-05T16:06:52.049Z,55.65
2023-12-05T16:09:21.698Z,55.68
2023-12-05T16:11:52.707Z,55.55
2023-12-05T16:14:22.580Z,55.42
2023-12-05T16:16:50.922Z,55.50
2023-12-05T16:19:18.645Z,55.36
2023-12-05T16:21:46.363Z,55.61
2023-12-05T16:24:14.046Z,55.67
2023-12-05T16:26:41.736Z,55.66
2023-12-05T16:29:09.533Z,55.88
2023-12-05T16:31:37.137Z,56.19
2023-12-05T16:34:05.582Z,56.03
2023-12-05T16:36:33.491Z,55.77
2023-12-05T16:39:01.174Z,55.91
2023-12-05T16:41:32.364Z,55.80
2023-12-05T16:43:59.949Z,55.97
2023-12-05T16:46:28.540Z,55.80
2023-12-05T16:48:56.471Z,56.05
2023-12-05T16:51:26.384Z,55.69
2023-12-05T16:53:54.665Z,55.84
2023-12-05T16:56:22.300Z,55.98
2023-12-05T16:58:49.943Z,56.18
2023-12-05T17:01:17.584Z,56.14
2023-12-05T17:03:45.426Z,55.87
2023-12-05T17:06:13.209Z,56.03
2023-12-05T17:08:41.014Z,56.36
2023-12-05T17:11:08.615Z,55.76
2023-12-05T17:13:36.282Z,56.28
2023-12-05T17:16:04.212Z,56.54
2023-12-05T17:18:32.430Z,55.98
2023-12-05T17:21:00.064Z,56.33
2023-12-05T17:23:30.437Z,56.30
2023-12-05T17:25:58.008Z,56.05
2023-12-05T17:28:25.649Z,56.35
2023-12-05T17:30:53.279Z,56.09
2023-12-05T17:33:21.012Z,56.37
2023-12-05T17:35:48.600Z,56.33
2023-12-05T17:38:16.521Z,56.12
2023-12-05T17:40:44.146Z,56.42
2023-12-05T17:43:11.854Z,56.42
2023-12-05T17:45:39.883Z,56.78
2023-12-05T17:48:07.984Z,56.21
2023-12-05T17:50:35.688Z,56.72
2023-12-05T17:53:03.390Z,56.61
2023-12-05T17:55:31.002Z,56.45
2023-12-05T17:57:58.693Z,56.81
2023-12-05T18:00:26.425Z,56.77
2023-12-05T18:02:54.884Z,56.37
2023-12-05T18:05:22.654Z,56.57
2023-12-05T18:07:57.709Z,56.90
2023-12-05T18:10:28.333Z,56.78
2023-12-05T18:12:56.270Z,56.92
2023-12-05T18:15:23.905Z,56.86
2023-12-05T18:17:52.178Z,56.70
2023-12-05T18:20:19.853Z,56.61
2023-12-05T18:22:47.711Z,57.02
2023-12-05T18:25:16.269Z,56.76
2023-12-05T18:27:44.504Z,57.35
2023-12-05T18:30:12.199Z,57.23
2023-12-05T18:32:39.938Z,57.06
2023-12-05T18:35:08.003Z,57.02
2023-12-05T18:37:37.334Z,57.31
2023-12-05T18:40:07.269Z,57.16
2023-12-05T18:42:35.172Z,57.24
2023-12-05T18:45:02.889Z,57.28
2023-12-05T18:47:30.523Z,57.54
2023-12-05T18:49:58.304Z,57.43
2023-12-05T18:52:25.964Z,57.57
2023-12-05T18:54:53.801Z,57.08
2023-12-05T18:57:21.538Z,57.35
2023-12-05T18:59:49.324Z,57.28
2023-12-05T19:02:16.935Z,57.35
2023-12-05T19:04:44.525Z,57.44
2023-12-05T19:07:13.982Z,57.34
2023-12-05T19:09:43.061Z,57.94
2023-12-05T19:12:10.768Z,57.49
2023-12-05T19:14:38.468Z,57.94
2023-12-05T19:17:07.050Z,58.30
2023-12-05T19:19:34.822Z,58.06
2023-12-05T19:22:03.884Z,58.11
2023-12-05T19:24:31.749Z,57.91
2023-12-05T19:27:00.786Z,57.95
2023-12-05T19:29:28.392Z,57.92
2023-12-05T19:31:56.020Z,58.07
2023-12-05T19:34:32.453Z,57.99
2023-12-05T19:37:07.798Z,57.98
2023-12-05T19:39:35.491Z,57.85
2023-12-05T19:42:03.979Z,57.79
2023-12-05T19:44:32.250Z,58.16
2023-12-05T19:46:59.804Z,58.08
2023-12-05T19:49:27.788Z,58.10
2023-12-05T19:51:55.654Z,58.28
2023-12-05T19:54:23.431Z,57.73
2023-12-05T19:56:51.280Z,58.49
2023-12-05T19:59:18.892Z,58.41
2023-12-05T20:01:47.384Z,58.33
2023-12-05T20:04:16.128Z,58.98
2023-12-05T20:06:43.789Z,58.18
2023-12-05T20:09:11.433Z,58.43
2023-12-05T20:11:39.064Z,58.74
2023-12-05T20:14:06.652Z,58.76
2023-12-05T20:16:34.238Z,58.64
2023-12-05T20:19:01.950Z,59.03
2023-12-05T20:21:29.851Z,59.35
2023-12-05T20:23:58.379Z,59.78
2023-12-05T20:26:26.971Z,58.90
2023-12-05T20:28:54.628Z,59.40
2023-12-05T20:31:22.266Z,59.02
2023-12-05T20:33:50.543Z,59.62
2023-12-05T20:36:18.198Z,60.07
2023-12-05T20:38:45.781Z,59.64
2023-12-05T20:41:15.723Z,60.28
2023-12-05T20:43:45.414Z,59.98
2023-12-05T20:46:15.223Z,60.19
2023-12-05T20:48:44.102Z,60.22
2023-12-05T20:51:11.782Z,60.49
2023-12-05T20:53:39.422Z,60.93
2023-12-05T20:56:07.799Z,60.37
2023-12-05T20:58:35.353Z,60.91
2023-12-05T21:01:03.663Z,60.30
2023-12-05T21:03:31.270Z,60.49
2023-12-05T21:05:59.386Z,61.10
2023-12-05T21:09:08.743Z,61.05
2023-12-05T21:11:16.149Z,61.06
2023-12-05T21:13:43.725Z,60.80
2023-12-05T21:16:11.392Z,61.36
2023-12-05T21:18:39.107Z,61.39
2023-12-05T21:21:06.777Z,61.13
2023-12-05T21:23:34.984Z,61.50
2023-12-05T21:26:02.637Z,61.32
2023-12-05T21:28:30.534Z,61.11
2023-12-05T21:30:58.444Z,61.04
2023-12-05T21:33:26.164Z,61.30
2023-12-05T21:35:53.833Z,61.10
2023-12-05T21:38:21.432Z,61.52
2023-12-05T21:40:49.136Z,60.97
2023-12-05T21:43:16.825Z,61.20
2023-12-05T21:45:44.502Z,61.46
2023-12-05T21:48:12.171Z,61.63
2023-12-05T21:50:39.781Z,60.93
2023-12-05T21:53:07.349Z,61.06
2023-12-05T21:55:34.933Z,60.99
2023-12-05T21:58:02.590Z,61.23
2023-12-05T22:00:30.303Z,61.63
2023-12-05T22:02:58.028Z,61.19
2023-12-05T22:05:25.666Z,62.10
2023-12-05T22:07:53.365Z,62.14
2023-12-05T22:10:21.082Z,61.94
2023-12-05T22:12:48.749Z,61.70
2023-12-05T22:15:16.353Z,62.24
2023-12-05T22:17:43.969Z,62.08
2023-12-05T22:20:11.724Z,62.23
2023-12-05T22:22:39.333Z,61.91
2023-12-05T22:25:07.768Z,62.35
2023-12-05T22:27:35.488Z,62.16
2023-12-05T22:30:04.683Z,62.67
2023-12-05T22:32:33.017Z,62.57
2023-12-05T22:35:00.752Z,62.78
2023-12-05T22:37:28.349Z,62.82
2023-12-05T22:39:55.953Z,63.14
2023-12-05T22:42:23.562Z,63.04
2023-12-05T22:44:51.287Z,62.60
2023-12-05T22:47:19.119Z,63.11
2023-12-05T22:49:46.958Z,62.40
2023-12-05T22:52:16.004Z,62.46
2023-12-05T22:54:43.730Z,62.79
2023-12-05T22:57:11.441Z,62.73
2023-12-05T22:59:39.103Z,63.14
2023-12-05T23:02:07.484Z,62.92
2023-12-05T23:04:35.094Z,62.76
2023-12-05T23:07:02.757Z,63.12
2023-12-05T23:09:30.385Z,63.11
2023-12-05T23:11:58.043Z,62.76
2023-12-05T23:14:25.864Z,63.00
2023-12-05T23:16:53.452Z,63.64
2023-12-05T23:19:21.149Z,63.12
2023-12-05T23:21:48.797Z,62.92
2023-12-05T23:24:16.378Z,63.02
2023-12-05T23:26:43.976Z,63.03
2023-12-05T23:29:11.556Z,63.68
2023-12-05T23:31:39.491Z,63.10
2023-12-05T23:34:07.187Z,63.60
2023-12-05T23:36:34.861Z,63.08
2023-12-05T23:39:02.450Z,63.24
2023-12-05T23:41:30.033Z,63.29
2023-12-05T23:43:57.619Z,62.79
2023-12-05T23:46:25.353Z,63.45
2023-12-05T23:48:54.085Z,63.17
2023-12-05T23:51:21.820Z,63.37
2023-12-05T23:53:49.408Z,62.72
2023-12-05T23:56:17.556Z,63.41
2023-12-05T23:58:45.392Z,63.21
